createdAt,value
2018-02-16T00:02:23.704Z,49.17
2018-02-16T00:04:52.114Z,49.87
2018-02-16T00:07:20.423Z,49.03
2018-02-16T00:09:48.736Z,54.77
2018-02-16T00:12:17.163Z,63.70
2018-02-16T00:14:45.755Z,62.33
2018-02-16T00:17:14.483Z,50.97
2018-02-16T00:19:42.843Z,57.33
2018-02-16T00:22:13.919Z,48.43
2018-02-16T00:24:42.925Z,42.03
2018-02-16T00:27:11.261Z,51.03
2018-02-16T00:29:40.144Z,39.47
2018-02-16T00:32:08.458Z,33.37
2018-02-16T00:34:37.000Z,32.70
2018-02-16T00:37:05.815Z,37.40
2018-02-16T00:39:34.133Z,35.20
2018-02-16T00:42:02.443Z,36.53
2018-02-16T00:44:30.792Z,34.93
2018-02-16T00:46:59.097Z,44.83
2018-02-16T00:49:28.001Z,42.03
2018-02-16T00:51:56.370Z,43.47
2018-02-16T00:54:24.760Z,44.00
2018-02-16T00:56:53.067Z,44.50
2018-02-16T00:59:21.488Z,47.30
2018-02-16T01:01:51.194Z,51.87
2018-02-16T01:04:19.509Z,42.20
2018-02-16T01:06:48.340Z,39.27
2018-02-16T01:09:16.649Z,36.67
2018-02-16T01:11:44.951Z,37.33
2018-02-16T01:14:13.688Z,34.57
2018-02-16T01:16:41.992Z,31.30
2018-02-16T01:19:10.295Z,35.53
2018-02-16T01:21:38.636Z,31.30
2018-02-16T01:24:08.044Z,39.27
2018-02-16T01:26:36.119Z,37.73
2018-02-16T01:29:04.245Z,33.17
2018-02-16T01:31:32.560Z,40.93
2018-02-16T01:34:01.078Z,37.20
2018-02-16T01:36:29.408Z,37.67
2018-02-16T01:38:57.760Z,33.93
2018-02-16T01:41:26.091Z,38.00
2018-02-16T01:43:54.399Z,37.67
2018-02-16T01:46:22.812Z,41.33
2018-02-16T01:48:51.120Z,35.27
2018-02-16T01:51:19.456Z,36.30
2018-02-16T01:53:48.772Z,39.67
2018-02-16T01:56:17.801Z,34.97
2018-02-16T01:58:46.123Z,45.20
2018-02-16T02:01:15.344Z,37.57
2018-02-16T02:03:43.652Z,39.73
2018-02-16T02:06:11.960Z,44.60
2018-02-16T02:08:40.558Z,35.30
2018-02-16T02:11:08.863Z,37.33
2018-02-16T02:13:37.385Z,35.90
2018-02-16T02:16:05.815Z,38.03
2018-02-16T02:18:34.132Z,41.23
2018-02-16T02:21:02.439Z,36.70
2018-02-16T02:23:30.887Z,37.40
2018-02-16T02:25:59.195Z,33.00
2018-02-16T02:28:28.634Z,26.90
2018-02-16T02:30:57.020Z,29.87
2018-02-16T02:33:25.372Z,34.67
2018-02-16T02:35:53.823Z,34.90
2018-02-16T02:38:22.263Z,31.17
2018-02-16T02:40:51.332Z,32.73
2018-02-16T02:43:19.644Z,30.20
2018-02-16T02:45:48.791Z,34.60
2018-02-16T02:48:17.095Z,34.13
2018-02-16T02:50:45.407Z,36.20
2018-02-16T02:53:13.756Z,39.57
2018-02-16T02:55:42.060Z,34.57
2018-02-16T02:58:11.091Z,30.23
2018-02-16T03:00:39.466Z,29.60
2018-02-16T03:03:07.527Z,42.60
2018-02-16T03:05:35.848Z,89.87
2018-02-16T03:08:05.704Z,31.50
2018-02-16T03:10:34.024Z,36.77
2018-02-16T03:13:02.631Z,27.63
2018-02-16T03:15:31.387Z,26.60
2018-02-16T03:17:59.699Z,30.70
2018-02-16T03:20:28.039Z,30.00
2018-02-16T03:22:56.781Z,26.00
2018-02-16T03:25:25.873Z,28.83
2018-02-16T03:27:54.709Z,25.73
2018-02-16T03:30:23.124Z,31.13
2018-02-16T03:32:51.438Z,50.83
2018-02-16T03:35:19.816Z,256.37
2018-02-16T03:37:48.124Z,41.10
2018-02-16T03:40:17.143Z,34.77
2018-02-16T03:42:45.504Z,42.53
2018-02-16T03:45:13.816Z,46.33
2018-02-16T03:47:42.128Z,40.00
2018-02-16T03:50:10.467Z,57.03
2018-02-16T03:52:38.772Z,41.20
2018-02-16T03:55:07.083Z,33.80
2018-02-16T03:57:35.731Z,34.07
2018-02-16T04:00:04.039Z,33.83
2018-02-16T04:02:32.379Z,31.30
2018-02-16T04:05:00.715Z,30.33
2018-02-16T04:07:29.032Z,32.57
2018-02-16T04:09:58.116Z,27.43
2018-02-16T04:12:27.251Z,22.40
2018-02-16T04:14:55.555Z,28.67
2018-02-16T04:17:23.872Z,20.30
2018-02-16T04:19:52.216Z,21.93
2018-02-16T04:22:20.516Z,23.27
2018-02-16T04:24:49.978Z,20.07
2018-02-16T04:27:18.291Z,15.80
2018-02-16T04:29:46.600Z,17.23
2018-02-16T04:32:15.807Z,19.97
2018-02-16T04:34:44.116Z,16.93
2018-02-16T04:37:12.419Z,29.30
2018-02-16T04:39:40.780Z,32.03
2018-02-16T04:42:09.119Z,24.13
2018-02-16T04:44:37.560Z,27.10
2018-02-16T04:47:05.929Z,24.40
2018-02-16T04:49:34.239Z,26.33
2018-02-16T04:52:03.314Z,29.90
2018-02-16T04:54:32.040Z,23.60
2018-02-16T04:57:00.347Z,23.80
2018-02-16T04:59:28.663Z,24.47
2018-02-16T05:01:57.040Z,18.53
2018-02-16T05:04:26.123Z,20.60
2018-02-16T05:06:54.434Z,21.13
2018-02-16T05:09:24.144Z,19.10
2018-02-16T05:11:52.520Z,18.77
2018-02-16T05:14:20.826Z,17.73
2018-02-16T05:16:49.159Z,17.97
2018-02-16T05:19:18.514Z,17.27
2018-02-16T05:21:46.828Z,15.47
2018-02-16T05:24:18.805Z,16.13
2018-02-16T05:26:47.728Z,13.00
2018-02-16T05:29:16.219Z,16.67
2018-02-16T05:31:44.568Z,16.20
2018-02-16T05:34:13.913Z,18.00
2018-02-16T05:36:42.223Z,17.00
2018-02-16T05:39:10.575Z,14.80
2018-02-16T05:41:39.903Z,23.67
2018-02-16T05:44:08.903Z,14.03
2018-02-16T05:46:37.795Z,13.47
2018-02-16T05:49:06.125Z,15.20
2018-02-16T05:51:34.428Z,16.63
2018-02-16T05:54:02.915Z,14.20
2018-02-16T05:56:31.240Z,12.83
2018-02-16T05:58:59.557Z,12.70
2018-02-16T06:01:27.904Z,20.43
2018-02-16T06:03:56.847Z,13.33
2018-02-16T06:06:25.147Z,19.27
2018-02-16T06:08:53.516Z,17.30
2018-02-16T06:11:21.823Z,14.60
2018-02-16T06:13:50.445Z,18.43
2018-02-16T06:16:18.807Z,17.53
2018-02-16T06:18:47.119Z,13.53
2018-02-16T06:21:15.428Z,16.10
2018-02-16T06:23:44.741Z,16.90
2018-02-16T06:26:13.618Z,19.57
2018-02-16T06:28:42.503Z,18.73
2018-02-16T06:31:11.637Z,19.73
2018-02-16T06:33:39.952Z,20.50
2018-02-16T06:36:08.264Z,18.73
2018-02-16T06:38:36.712Z,25.80
2018-02-16T06:41:05.019Z,21.67
2018-02-16T06:43:33.327Z,18.33
2018-02-16T06:46:01.675Z,15.37
2018-02-16T06:48:29.976Z,18.10
2018-02-16T06:50:59.045Z,20.50
2018-02-16T06:53:28.255Z,24.63
2018-02-16T06:55:56.569Z,21.00
2018-02-16T06:58:25.145Z,32.00
2018-02-16T07:00:53.792Z,22.47
2018-02-16T07:03:22.141Z,20.93
2018-02-16T07:05:50.415Z,17.37
2018-02-16T07:08:18.780Z,21.43
2018-02-16T07:10:47.084Z,16.57
2018-02-16T07:13:16.155Z,22.30
2018-02-16T07:15:44.513Z,16.87
2018-02-16T07:18:12.812Z,13.60
2018-02-16T07:20:41.607Z,18.30
2018-02-16T07:23:09.972Z,12.50
2018-02-16T07:25:38.284Z,11.63
2018-02-16T07:28:06.588Z,10.07
2018-02-16T07:30:35.523Z,21.77
2018-02-16T07:33:03.827Z,13.27
2018-02-16T07:35:32.904Z,11.43
2018-02-16T07:38:01.268Z,12.67
2018-02-16T07:40:29.583Z,12.20
2018-02-16T07:42:57.925Z,14.90
2018-02-16T07:45:26.376Z,17.27
2018-02-16T07:47:54.687Z,20.43
2018-02-16T07:50:23.007Z,22.87
2018-02-16T07:52:51.376Z,14.40
2018-02-16T07:55:19.700Z,11.07
2018-02-16T07:57:48.029Z,16.47
2018-02-16T08:00:16.367Z,13.27
2018-02-16T08:02:44.673Z,14.87
2018-02-16T08:05:12.981Z,12.93
2018-02-16T08:07:41.344Z,12.80
2018-02-16T08:10:10.416Z,12.00
2018-02-16T08:12:38.711Z,9.47
2018-02-16T08:15:07.816Z,8.47
2018-02-16T08:17:36.131Z,10.50
2018-02-16T08:20:04.431Z,7.00
2018-02-16T08:22:32.775Z,7.17
2018-02-16T08:25:01.081Z,12.43
2018-02-16T08:27:29.296Z,8.03
2018-02-16T08:29:57.647Z,6.60
2018-02-16T08:32:25.947Z,8.40
2018-02-16T08:34:55.007Z,7.50
2018-02-16T08:37:23.352Z,9.60
2018-02-16T08:39:51.655Z,9.93
2018-02-16T08:42:19.980Z,10.13
2018-02-16T08:44:48.326Z,7.37
2018-02-16T08:47:16.623Z,13.13
2018-02-16T08:49:45.756Z,11.53
2018-02-16T08:52:14.084Z,12.30
2018-02-16T08:54:42.389Z,10.10
2018-02-16T08:57:10.707Z,12.93
2018-02-16T08:59:39.081Z,10.10
2018-02-16T09:02:07.440Z,8.30
2018-02-16T09:04:35.743Z,7.40
2018-02-16T09:07:04.113Z,9.10
2018-02-16T09:09:32.424Z,8.97
2018-02-16T09:12:00.736Z,6.93
2018-02-16T09:14:29.113Z,11.27
2018-02-16T09:16:57.415Z,10.87
2018-02-16T09:19:25.717Z,11.03
2018-02-16T09:21:54.585Z,6.40
2018-02-16T09:24:22.891Z,14.40
2018-02-16T09:26:51.190Z,9.77
2018-02-16T09:29:19.309Z,6.30
2018-02-16T09:31:47.888Z,8.60
2018-02-16T09:34:16.196Z,5.00
2018-02-16T09:36:44.624Z,6.90
2018-02-16T09:39:19.424Z,7.80
2018-02-16T09:41:47.784Z,6.67
2018-02-16T09:44:16.287Z,5.23
2018-02-16T09:46:44.632Z,6.97
2018-02-16T09:49:12.991Z,6.67
2018-02-16T09:51:41.291Z,3.80
2018-02-16T09:54:10.212Z,6.17
2018-02-16T09:56:38.559Z,5.67
2018-02-16T09:59:06.855Z,6.10
2018-02-16T10:01:35.151Z,9.03
2018-02-16T10:04:03.588Z,4.60
2018-02-16T10:06:31.891Z,9.07
2018-02-16T10:09:00.195Z,10.53
2018-02-16T10:11:29.401Z,5.23
2018-02-16T10:13:57.716Z,13.27
2018-02-16T10:16:26.408Z,7.17
2018-02-16T10:18:54.877Z,9.00
2018-02-16T10:21:23.180Z,8.77
2018-02-16T10:23:51.495Z,11.00
2018-02-16T10:26:20.616Z,8.03
2018-02-16T10:28:48.919Z,13.70
2018-02-16T10:31:17.226Z,6.83
2018-02-16T10:33:46.373Z,12.33
2018-02-16T10:36:14.720Z,8.87
2018-02-16T10:38:43.536Z,12.70
2018-02-16T10:41:11.872Z,8.37
2018-02-16T10:43:40.188Z,12.90
2018-02-16T10:46:08.504Z,6.20
2018-02-16T10:48:36.624Z,6.10
2018-02-16T10:51:04.940Z,6.50
2018-02-16T10:53:33.508Z,10.67
2018-02-16T10:56:01.899Z,8.63
2018-02-16T10:58:30.830Z,6.43
2018-02-16T11:01:04.654Z,6.30
2018-02-16T11:03:33.285Z,8.17
2018-02-16T11:06:01.867Z,8.47
2018-02-16T11:21:52.215Z,4.30
2018-02-16T11:24:20.572Z,10.07
2018-02-16T11:26:49.651Z,9.77
2018-02-16T11:29:17.980Z,7.30
2018-02-16T11:31:47.427Z,9.03
2018-02-16T11:34:15.731Z,6.30
2018-02-16T11:36:44.324Z,11.33
2018-02-16T11:39:12.673Z,7.03
2018-02-16T11:41:40.979Z,10.13
2018-02-16T11:44:10.052Z,8.83
2018-02-16T11:46:38.390Z,6.23
2018-02-16T11:49:06.869Z,9.80
2018-02-16T11:51:35.184Z,8.83
2018-02-16T11:54:03.560Z,11.53
2018-02-16T11:56:31.873Z,9.83
2018-02-16T11:59:00.187Z,5.07
2018-02-16T12:01:28.536Z,9.77
2018-02-16T12:03:56.839Z,8.10
2018-02-16T12:06:25.144Z,12.37
2018-02-16T12:08:53.508Z,9.27
2018-02-16T12:11:21.810Z,9.47
2018-02-16T12:13:50.119Z,10.13
2018-02-16T12:16:18.475Z,15.60
2018-02-16T12:18:47.547Z,11.00
2018-02-16T12:21:15.847Z,12.37
2018-02-16T12:23:44.949Z,11.43
2018-02-16T12:26:14.023Z,9.63
2018-02-16T12:28:42.336Z,12.60
2018-02-16T12:31:10.691Z,14.20
2018-02-16T12:33:39.132Z,7.73
2018-02-16T12:36:07.764Z,8.87
2018-02-16T12:38:36.688Z,9.90
2018-02-16T12:41:05.019Z,7.30
2018-02-16T12:43:33.324Z,13.50
2018-02-16T12:46:01.761Z,7.57
2018-02-16T12:48:30.064Z,7.27
2018-02-16T12:50:58.376Z,16.50
2018-02-16T12:53:26.815Z,9.80
2018-02-16T12:55:55.120Z,13.93
2018-02-16T12:58:23.451Z,8.73
2018-02-16T13:00:51.800Z,8.40
2018-02-16T13:03:20.127Z,10.70
2018-02-16T13:05:48.658Z,11.13
2018-02-16T13:08:17.140Z,13.43
2018-02-16T13:10:46.099Z,7.80
2018-02-16T13:13:15.183Z,15.50
2018-02-16T13:15:44.315Z,7.47
2018-02-16T13:18:13.003Z,13.97
2018-02-16T13:20:41.318Z,13.93
2018-02-16T13:23:09.640Z,13.17
2018-02-16T13:25:38.073Z,17.50
2018-02-16T13:28:06.386Z,11.10
2018-02-16T13:30:34.771Z,9.57
2018-02-16T13:33:03.879Z,12.50
2018-02-16T13:35:32.227Z,12.67
2018-02-16T13:38:00.883Z,12.70
2018-02-16T13:40:29.201Z,9.90
2018-02-16T13:42:57.524Z,10.60
2018-02-16T13:45:25.908Z,8.43
2018-02-16T13:47:54.312Z,11.43
2018-02-16T13:50:23.287Z,11.90
2018-02-16T13:52:52.455Z,10.37
2018-02-16T13:55:20.803Z,10.70
2018-02-16T13:57:49.148Z,11.00
2018-02-16T14:00:18.679Z,11.10
2018-02-16T14:02:46.827Z,8.93
2018-02-16T14:05:15.432Z,14.17
2018-02-16T14:07:43.750Z,13.37
2018-02-16T14:10:11.916Z,8.10
2018-02-16T14:12:40.282Z,9.93
2018-02-16T14:15:08.600Z,10.00
2018-02-16T14:17:36.959Z,11.50
2018-02-16T14:20:06.095Z,9.50
2018-02-16T14:22:34.216Z,14.23
2018-02-16T14:25:02.581Z,9.43
2018-02-16T14:27:31.659Z,20.73
2018-02-16T14:30:00.016Z,10.47
2018-02-16T14:32:28.339Z,12.20
2018-02-16T14:34:56.670Z,11.07
2018-02-16T14:37:25.640Z,7.33
2018-02-16T14:39:54.499Z,11.83
2018-02-16T14:42:23.588Z,10.13
2018-02-16T14:44:52.668Z,9.63
2018-02-16T14:47:21.104Z,14.73
2018-02-16T14:49:49.444Z,15.53
2018-02-16T14:52:18.519Z,8.30
2018-02-16T14:54:46.943Z,7.30
2018-02-16T14:57:15.088Z,10.03
2018-02-16T14:59:43.395Z,12.27
2018-02-16T15:02:11.467Z,11.93
2018-02-16T15:04:39.894Z,17.30
2018-02-16T15:07:08.182Z,12.73
2018-02-16T15:09:37.301Z,9.03
2018-02-16T15:12:06.733Z,13.80
2018-02-16T15:14:35.148Z,10.80
2018-02-16T15:17:03.263Z,13.50
2018-02-16T15:19:32.123Z,21.83
2018-02-16T15:22:00.436Z,13.20
2018-02-16T15:24:28.752Z,12.13
2018-02-16T15:26:57.108Z,13.63
2018-02-16T15:29:25.467Z,11.83
2018-02-16T15:31:53.580Z,10.57
2018-02-16T15:34:21.793Z,20.93
2018-02-16T15:36:50.113Z,14.30
2018-02-16T15:39:18.434Z,12.10
2018-02-16T15:41:46.547Z,11.53
2018-02-16T15:44:14.868Z,10.47
2018-02-16T15:46:43.183Z,16.83
2018-02-16T15:49:11.523Z,8.97
2018-02-16T15:51:40.487Z,16.63
2018-02-16T15:54:08.793Z,15.73
2018-02-16T15:56:37.127Z,15.43
2018-02-16T15:59:05.477Z,20.73
2018-02-16T16:01:34.556Z,16.10
2018-02-16T16:04:02.915Z,13.83
2018-02-16T16:06:31.866Z,15.47
2018-02-16T16:09:00.196Z,14.30
2018-02-16T16:11:28.539Z,16.57
2018-02-16T16:13:57.928Z,20.10
2018-02-16T16:16:26.340Z,14.37
2018-02-16T16:18:54.673Z,22.77
2018-02-16T16:21:23.003Z,18.63
2018-02-16T16:23:51.376Z,16.53
2018-02-16T16:26:19.691Z,25.40
2018-02-16T16:28:48.435Z,18.40
2018-02-16T16:31:17.704Z,14.80
2018-02-16T16:33:46.008Z,14.40
2018-02-16T16:36:14.376Z,18.67
2018-02-16T16:38:42.684Z,19.23
2018-02-16T16:41:10.987Z,25.50
2018-02-16T16:43:39.880Z,21.53
2018-02-16T16:46:08.198Z,21.90
2018-02-16T16:48:36.512Z,20.07
2018-02-16T16:51:04.951Z,17.40
2018-02-16T16:53:33.261Z,23.87
2018-02-16T16:56:01.599Z,28.20
2018-02-16T16:58:29.980Z,28.20
2018-02-16T17:00:58.276Z,29.63
2018-02-16T17:03:26.579Z,29.00
2018-02-16T17:05:54.955Z,29.70
2018-02-16T17:08:23.272Z,31.63
2018-02-16T17:10:51.736Z,41.07
2018-02-16T17:13:20.573Z,35.47
2018-02-16T17:15:49.231Z,29.93
2018-02-16T17:18:17.584Z,45.27
2018-02-16T17:20:45.775Z,36.63
2018-02-16T17:23:15.840Z,40.63
2018-02-16T17:25:45.537Z,36.33
2018-02-16T17:28:13.948Z,32.80
2018-02-16T17:30:42.252Z,35.03
2018-02-16T17:33:13.596Z,35.27
2018-02-16T17:35:41.918Z,37.67
2018-02-16T17:38:10.226Z,45.63
2018-02-16T17:40:38.692Z,28.20
2018-02-16T17:43:07.571Z,38.50
2018-02-16T17:45:36.576Z,47.00
2018-02-16T17:48:05.383Z,51.90
2018-02-16T17:50:34.686Z,47.87
2018-02-16T17:53:03.903Z,71.43
2018-02-16T17:55:45.294Z,63.43
2018-02-16T17:58:13.920Z,87.77
2018-02-16T18:00:43.355Z,81.73
2018-02-16T18:03:11.864Z,74.77
2018-02-16T18:05:40.959Z,65.10
2018-02-16T18:08:10.044Z,71.50
2018-02-16T18:10:38.442Z,58.57
2018-02-16T18:13:06.744Z,73.93
2018-02-16T18:15:35.057Z,77.43
2018-02-16T18:18:03.423Z,46.00
2018-02-16T18:20:31.728Z,59.97
2018-02-16T18:23:00.036Z,60.80
2018-02-16T18:25:28.553Z,58.00
2018-02-16T18:27:56.876Z,56.20
2018-02-16T18:30:25.216Z,61.23
2018-02-16T18:32:53.565Z,47.87
2018-02-16T18:35:21.883Z,47.13
2018-02-16T18:37:50.223Z,58.00
2018-02-16T18:40:18.580Z,50.10
2018-02-16T18:42:46.898Z,61.90
2018-02-16T18:45:15.627Z,45.40
2018-02-16T18:47:44.826Z,53.53
2018-02-16T18:50:13.903Z,45.50
2018-02-16T18:52:42.256Z,50.37
2018-02-16T18:55:10.575Z,65.33
2018-02-16T18:57:38.885Z,59.47
2018-02-16T19:00:08.036Z,68.30
2018-02-16T19:02:36.395Z,58.13
2018-02-16T19:05:07.677Z,59.37
2018-02-16T19:07:36.020Z,53.20
2018-02-16T19:10:04.332Z,63.57
2018-02-16T19:12:32.530Z,62.27
2018-02-16T19:15:00.780Z,60.33
2018-02-16T19:17:29.088Z,73.17
2018-02-16T19:19:57.875Z,67.57
2018-02-16T19:22:26.197Z,77.73
2018-02-16T19:24:54.775Z,65.30
2018-02-16T19:27:23.326Z,56.07
2018-02-16T19:29:51.664Z,74.50
2018-02-16T19:32:20.548Z,69.57
2018-02-16T19:34:49.312Z,91.17
2018-02-16T19:37:18.367Z,79.67
2018-02-16T19:39:46.808Z,84.53
2018-02-16T19:42:15.969Z,89.03
2018-02-16T19:44:44.316Z,93.57
2018-02-16T19:47:13.299Z,82.17
2018-02-16T19:49:41.652Z,75.90
2018-02-16T19:52:13.809Z,72.87
2018-02-16T19:54:46.992Z,63.27
2018-02-16T19:57:16.125Z,72.37
2018-02-16T19:59:44.548Z,62.03
2018-02-16T20:02:13.191Z,76.40
2018-02-16T20:04:41.972Z,66.23
2018-02-16T20:07:10.347Z,71.17
2018-02-16T20:09:40.887Z,76.50
2018-02-16T20:12:09.256Z,99.77
2018-02-16T20:14:38.010Z,109.93
2018-02-16T20:17:06.544Z,93.80
2018-02-16T20:19:34.864Z,88.80
2018-02-16T20:22:04.681Z,105.67
2018-02-16T20:24:33.219Z,97.03
2018-02-16T20:27:02.050Z,94.70
2018-02-16T20:29:31.879Z,106.57
2018-02-16T20:32:01.027Z,121.40
2018-02-16T20:34:30.113Z,112.13
2018-02-16T20:36:59.330Z,117.87
2018-02-16T20:39:27.754Z,114.85
2018-02-16T20:41:56.073Z,123.13
2018-02-16T20:44:24.384Z,114.83
2018-02-16T20:46:53.361Z,132.10
2018-02-16T20:49:21.667Z,121.47
2018-02-16T20:51:50.125Z,111.27
2018-02-16T20:54:19.059Z,133.07
2018-02-16T20:56:48.100Z,143.25
2018-02-16T20:59:16.416Z,135.20
2018-02-16T21:01:45.146Z,140.13
2018-02-16T21:04:13.541Z,141.60
2018-02-16T21:06:42.016Z,172.50
2018-02-16T21:09:10.468Z,167.43
2018-02-16T21:11:38.788Z,163.45
2018-02-16T21:14:07.108Z,147.53
2018-02-16T21:16:35.508Z,149.83
2018-02-16T21:19:03.840Z,149.27
2018-02-16T21:21:32.173Z,150.30
2018-02-16T21:24:00.531Z,139.82
2018-02-16T21:26:28.913Z,143.20
2018-02-16T21:28:57.223Z,132.73
2018-02-16T21:31:25.617Z,153.47
2018-02-16T21:33:53.903Z,153.80
2018-02-16T21:36:22.983Z,159.53
2018-02-16T21:38:51.307Z,145.52
2018-02-16T21:41:19.662Z,175.07
2018-02-16T21:43:48.264Z,170.18
2018-02-16T21:46:16.645Z,144.50
2018-02-16T21:48:45.012Z,147.02
2018-02-16T21:51:13.476Z,180.00
2018-02-16T21:53:41.982Z,142.77
2018-02-16T21:56:10.285Z,169.37
2018-02-16T21:58:40.104Z,158.85
2018-02-16T22:01:09.232Z,164.05
2018-02-16T22:03:37.552Z,159.30
2018-02-16T22:06:05.909Z,159.63
2018-02-16T22:08:34.932Z,176.55
2018-02-16T22:11:03.416Z,186.20
2018-02-16T22:13:32.588Z,177.35
2018-02-16T22:16:01.381Z,169.87
2018-02-16T22:18:29.744Z,182.10
2018-02-16T22:20:59.213Z,174.60
2018-02-16T22:23:28.508Z,143.10
2018-02-16T22:25:56.839Z,149.18
2018-02-16T22:28:25.164Z,175.62
2018-02-16T22:30:54.311Z,173.18
2018-02-16T22:33:24.083Z,162.93
2018-02-16T22:35:52.961Z,166.15
2018-02-16T22:38:21.352Z,157.12
2018-02-16T22:40:50.461Z,174.60
2018-02-16T22:43:19.600Z,170.73
2018-02-16T22:45:48.524Z,182.75
2018-02-16T22:48:17.612Z,197.40
2018-02-16T22:50:45.976Z,191.23
2018-02-16T22:53:14.300Z,177.25
2018-02-16T22:55:42.696Z,208.85
2018-02-16T22:58:11.021Z,232.52
2018-02-16T23:00:39.350Z,224.70
2018-02-16T23:03:07.707Z,201.15
2018-02-16T23:05:36.043Z,211.87
2018-02-16T23:08:04.428Z,190.65
2018-02-16T23:10:32.761Z,187.73
2018-02-16T23:13:01.083Z,201.57
2018-02-16T23:15:29.431Z,171.90
2018-02-16T23:17:57.760Z,169.50
2018-02-16T23:20:26.119Z,216.95
2018-02-16T23:22:54.435Z,155.12
2018-02-16T23:25:23.304Z,176.73
2018-02-16T23:27:52.395Z,172.50
2018-02-16T23:30:20.739Z,165.20
2018-02-16T23:32:49.129Z,211.32
2018-02-16T23:35:17.455Z,233.07
2018-02-16T23:37:46.460Z,229.38
2018-02-16T23:40:15.211Z,207.73
2018-02-16T23:42:44.249Z,213.70
2018-02-16T23:45:12.577Z,210.02
2018-02-16T23:47:40.956Z,215.50
2018-02-16T23:50:09.285Z,227.15
2018-02-16T23:52:37.774Z,227.05
2018-02-16T23:55:06.901Z,252.27
2018-02-16T23:57:35.272Z,258.15
